Time,TemperatureF,DewpointF,PressureIn,WindDirection,WindDirectionDegrees,WindSpeedMPH,WindSpeedGustMPH,Humidity,HourlyPrecipIn,Conditions,Clouds,dailyrainin,SoftwareType,DateUTC
2013-07-27 00:02:00,53.6,53.0,30.03,SW,217,3.0,6.0,97,0.00,,,0.00,weatherlink.com 1.10,2013-07-27 07:02:00,
2013-07-27 00:17:00,53.5,53.0,30.03,WSW,249,1.0,6.0,97,0.00,,,0.00,weatherlink.com 1.10,2013-07-27 07:17:00,
2013-07-27 00:32:00,53.6,53.0,30.02,SW,221,0.0,8.0,97,0.00,,,0.00,weatherlink.com 1.10,2013-07-27 07:32:00,
2013-07-27 00:47:00,53.6,53.0,30.02,South,181,3.0,7.0,97,0.00,,,0.00,weatherlink.com 1.10,2013-07-27 07:47:00,
2013-07-27 01:02:00,53.6,53.0,30.02,South,180,2.0,6.0,97,0.00,,,0.00,weatherlink.com 1.10,2013-07-27 08:02:00,
2013-07-27 01:17:00,53.6,53.0,30.02,SSW,200,2.0,5.0,97,0.00,,,0.00,weatherlink.com 1.10,2013-07-27 08:17:00,
2013-07-27 01:32:00,53.5,53.0,30.02,SSE,162,0.0,3.0,97,0.00,,,0.00,weatherlink.com 1.10,2013-07-27 08:32:00,
2013-07-27 01:47:00,53.5,53.0,30.02,SW,228,0.0,0.0,98,0.00,,,0.00,weatherlink.com 1.10,2013-07-27 08:47:00,
2013-07-27 02:02:00,53.1,52.0,30.01,SW,218,4.0,5.0,97,0.00,,,0.00,weatherlink.com 1.10,2013-07-27 09:02:00,
2013-07-27 02:17:00,53.2,53.0,30.01,NW,319,0.0,2.0,98,0.00,,,0.00,weatherlink.com 1.10,2013-07-27 09:17:00,
2013-07-27 02:32:00,53.0,53.0,30.01,West,280,0.0,3.0,98,0.00,,,0.00,weatherlink.com 1.10,2013-07-27 09:32:00,
2013-07-27 02:47:00,52.8,52.0,30.00,West,276,2.0,3.0,98,0.00,,,0.00,weatherlink.com 1.10,2013-07-27 09:47:00,
2013-07-27 03:02:00,52.7,52.0,30.00,West,280,0.0,0.0,98,0.00,,,0.00,weatherlink.com 1.10,2013-07-27 10:02:00,
2013-07-27 03:17:00,52.7,52.0,29.99,SSW,198,0.0,0.0,98,0.00,,,0.00,weatherlink.com 1.10,2013-07-27 10:17:00,
2013-07-27 03:32:00,52.8,52.0,29.99,SSE,153,0.0,0.0,98,0.00,,,0.00,weatherlink.com 1.10,2013-07-27 10:32:00,
2013-07-27 03:48:00,52.8,52.0,29.99,SSW,204,0.0,3.0,98,0.00,,,0.00,weatherlink.com 1.10,2013-07-27 10:48:00,
2013-07-27 04:03:00,52.7,52.0,29.99,SW,229,0.0,0.0,98,0.00,,,0.00,weatherlink.com 1.10,2013-07-27 11:03:00,
2013-07-27 04:18:00,52.7,52.0,29.99,SW,226,0.0,0.0,98,0.00,,,0.00,weatherlink.com 1.10,2013-07-27 11:18:00,
2013-07-27 04:33:00,52.8,52.0,29.98,SSW,201,0.0,0.0,98,0.00,,,0.00,weatherlink.com 1.10,2013-07-27 11:33:00,
2013-07-27 04:48:00,52.7,52.0,29.98,SW,236,1.0,2.0,98,0.00,,,0.00,weatherlink.com 1.10,2013-07-27 11:48:00,
2013-07-27 05:03:00,52.6,52.0,29.98,ESE,114,0.0,4.0,98,0.00,,,0.00,weatherlink.com 1.10,2013-07-27 12:03:00,
2013-07-27 05:18:00,52.5,52.0,29.98,SSW,208,2.0,2.0,98,0.00,,,0.00,weatherlink.com 1.10,2013-07-27 12:18:00,
2013-07-27 05:33:00,52.6,52.0,29.98,SW,219,0.0,0.0,98,0.00,,,0.00,weatherlink.com 1.10,2013-07-27 12:33:00,
2013-07-27 05:48:00,52.5,52.0,29.99,SSW,195,0.0,4.0,98,0.00,,,0.00,weatherlink.com 1.10,2013-07-27 12:48:00,
2013-07-27 06:03:00,52.5,52.0,29.99,SW,228,0.0,0.0,98,0.00,,,0.00,weatherlink.com 1.10,2013-07-27 13:03:00,
2013-07-27 06:18:00,52.3,52.0,29.99,SSW,195,3.0,5.0,98,0.00,,,0.00,weatherlink.com 1.10,2013-07-27 13:18:00,
2013-07-27 06:33:00,52.1,52.0,29.99,SSW,200,2.0,3.0,98,0.00,,,0.00,weatherlink.com 1.10,2013-07-27 13:33:00,
2013-07-27 06:48:00,52.2,52.0,29.99,SSE,162,0.0,1.0,99,0.00,,,0.00,weatherlink.com 1.10,2013-07-27 13:48:00,
2013-07-27 07:03:00,52.0,52.0,29.99,SSW,212,0.0,6.0,98,0.00,,,0.00,weatherlink.com 1.10,2013-07-27 14:03:00,
2013-07-27 07:18:00,52.0,52.0,29.99,SSW,197,2.0,4.0,98,0.00,,,0.00,weatherlink.com 1.10,2013-07-27 14:18:00,
2013-07-27 07:33:00,52.1,52.0,29.99,SW,219,0.0,5.0,98,0.00,,,0.00,weatherlink.com 1.10,2013-07-27 14:33:00,
2013-07-27 07:48:00,52.4,52.0,30.00,SSW,208,0.0,4.0,99,0.00,,,0.00,weatherlink.com 1.10,2013-07-27 14:48:00,
2013-07-27 08:03:00,52.6,52.0,30.00,SSW,210,1.0,5.0,98,0.00,,,0.00,weatherlink.com 1.10,2013-07-27 15:03:00,
2013-07-27 08:18:00,53.0,53.0,30.00,SSW,194,2.0,3.0,98,0.00,,,0.00,weatherlink.com 1.10,2013-07-27 15:18:00,
2013-07-27 08:33:00,53.2,53.0,30.01,South,181,2.0,5.0,98,0.00,,,0.00,weatherlink.com 1.10,2013-07-27 15:33:00,
2013-07-27 08:48:00,53.6,53.0,30.01,WSW,246,2.0,3.0,98,0.00,,,0.00,weatherlink.com 1.10,2013-07-27 15:48:00,
2013-07-27 09:03:00,54.0,53.0,30.01,South,190,2.0,4.0,97,0.00,,,0.00,weatherlink.com 1.10,2013-07-27 16:03:00,
2013-07-27 09:18:00,53.9,53.0,30.01,West,277,0.0,4.0,97,0.00,,,0.00,weatherlink.com 1.10,2013-07-27 16:18:00,
2013-07-27 09:33:00,54.5,54.0,30.01,South,176,0.0,3.0,97,0.00,,,0.00,weatherlink.com 1.10,2013-07-27 16:33:00,
2013-07-27 09:48:00,55.0,54.0,30.00,West,270,1.0,4.0,96,0.00,,,0.00,weatherlink.com 1.10,2013-07-27 16:48:00,
2013-07-27 10:03:00,55.4,54.0,30.00,SW,215,3.0,5.0,95,0.00,,,0.00,weatherlink.com 1.10,2013-07-27 17:03:00,
2013-07-27 10:18:00,56.1,55.0,30.00,SW,225,0.0,3.0,95,0.00,,,0.00,weatherlink.com 1.10,2013-07-27 17:18:00,
2013-07-27 10:33:00,56.9,55.0,30.00,NW,316,0.0,0.0,93,0.00,,,0.00,weatherlink.com 1.10,2013-07-27 17:33:00,
2013-07-27 10:48:00,57.7,55.0,30.00,WSW,257,0.0,3.0,91,0.00,,,0.00,weatherlink.com 1.10,2013-07-27 17:48:00,
2013-07-27 11:03:00,58.5,55.0,30.00,SW,226,0.0,4.0,89,0.00,,,0.00,weatherlink.com 1.10,2013-07-27 18:03:00,
2013-07-27 11:18:00,59.3,56.0,29.99,South,174,0.0,4.0,89,0.00,,,0.00,weatherlink.com 1.10,2013-07-27 18:18:00,
2013-07-27 11:33:00,60.1,56.0,29.99,SSW,211,3.0,7.0,86,0.00,,,0.00,weatherlink.com 1.10,2013-07-27 18:33:00,
2013-07-27 11:48:00,60.6,56.0,29.99,WNW,299,1.0,6.0,85,0.00,,,0.00,weatherlink.com 1.10,2013-07-27 18:48:00,
2013-07-27 12:04:00,62.1,57.0,29.98,SW,222,5.0,6.0,83,0.00,,,0.00,weatherlink.com 1.10,2013-07-27 19:04:00,
2013-07-27 12:19:00,62.4,57.0,29.98,East,101,3.0,6.0,82,0.00,,,0.00,weatherlink.com 1.10,2013-07-27 19:19:00,
2013-07-27 12:34:00,63.6,57.0,29.98,WSW,252,5.0,8.0,79,0.00,,,0.00,weatherlink.com 1.10,2013-07-27 19:34:00,
2013-07-27 12:49:00,65.2,58.0,29.96,WNW,283,3.0,7.0,77,0.00,,,0.00,weatherlink.com 1.10,2013-07-27 19:49:00,
2013-07-27 13:04:00,66.5,58.0,29.96,West,271,2.0,10.0,74,0.00,,,0.00,weatherlink.com 1.10,2013-07-27 20:04:00,
2013-07-27 13:19:00,68.3,59.0,29.96,WSW,251,7.0,10.0,71,0.00,,,0.00,weatherlink.com 1.10,2013-07-27 20:19:00,
2013-07-27 13:34:00,69.5,58.0,29.95,WSW,250,3.0,8.0,68,0.00,,,0.00,weatherlink.com 1.10,2013-07-27 20:34:00,
2013-07-27 13:49:00,70.8,59.0,29.95,West,267,4.0,8.0,66,0.00,,,0.00,weatherlink.com 1.10,2013-07-27 20:49:00,
2013-07-27 14:04:00,71.9,59.0,29.94,WSW,249,7.0,9.0,64,0.00,,,0.00,weatherlink.com 1.10,2013-07-27 21:04:00,
2013-07-27 14:19:00,72.2,59.0,29.93,SSW,210,3.0,8.0,64,0.00,,,0.00,weatherlink.com 1.10,2013-07-27 21:19:00,
2013-07-27 14:34:00,73.1,59.0,29.93,SSW,207,2.0,9.0,62,0.00,,,0.00,weatherlink.com 1.10,2013-07-27 21:34:00,
2013-07-27 14:49:00,74.7,59.0,29.92,SW,233,4.0,8.0,59,0.00,,,0.00,weatherlink.com 1.10,2013-07-27 21:49:00,
2013-07-27 15:04:00,74.9,59.0,29.91,SSW,202,6.0,11.0,57,0.00,,,0.00,weatherlink.com 1.10,2013-07-27 22:04:00,
2013-07-27 15:19:00,74.2,59.0,29.91,SSE,152,3.0,13.0,59,0.00,,,0.00,weatherlink.com 1.10,2013-07-27 22:19:00,
2013-07-27 15:34:00,72.7,58.0,29.91,South,179,7.0,13.0,61,0.00,,,0.00,weatherlink.com 1.10,2013-07-27 22:34:00,
2013-07-27 15:49:00,72.6,58.0,29.90,SW,235,8.0,12.0,61,0.00,,,0.00,weatherlink.com 1.10,2013-07-27 22:49:00,
2013-07-27 16:04:00,73.4,59.0,29.89,NW,316,4.0,10.0,61,0.00,,,0.00,weatherlink.com 1.10,2013-07-27 23:04:00,
2013-07-27 16:19:00,73.1,58.0,29.88,South,190,5.0,13.0,60,0.00,,,0.00,weatherlink.com 1.10,2013-07-27 23:19:00,
2013-07-27 16:34:00,72.7,58.0,29.88,SW,222,7.0,10.0,60,0.00,,,0.00,weatherlink.com 1.10,2013-07-27 23:34:00,
2013-07-27 16:49:00,71.3,58.0,29.88,South,186,7.0,12.0,63,0.00,,,0.00,weatherlink.com 1.10,2013-07-27 23:49:00,
2013-07-27 17:04:00,71.6,58.0,29.88,SSW,212,2.0,10.0,62,0.00,,,0.00,weatherlink.com 1.10,2013-07-28 00:04:00,
2013-07-27 17:19:00,70.4,58.0,29.87,SW,233,5.0,13.0,64,0.00,,,0.00,weatherlink.com 1.10,2013-07-28 00:19:00,
2013-07-27 17:34:00,69.0,57.0,29.87,SW,215,4.0,13.0,65,0.00,,,0.00,weatherlink.com 1.10,2013-07-28 00:34:00,
2013-07-27 17:49:00,67.4,56.0,29.88,SW,214,5.0,13.0,68,0.00,,,0.00,weatherlink.com 1.10,2013-07-28 00:49:00,
2013-07-27 18:05:00,65.8,57.0,29.88,SW,230,9.0,14.0,72,0.00,,,0.00,weatherlink.com 1.10,2013-07-28 01:05:00,
2013-07-27 18:20:00,65.2,57.0,29.87,SW,221,5.0,10.0,74,0.00,,,0.00,weatherlink.com 1.10,2013-07-28 01:20:00,
2013-07-27 18:35:00,64.3,56.0,29.87,WSW,255,7.0,11.0,74,0.00,,,0.00,weatherlink.com 1.10,2013-07-28 01:35:00,
2013-07-27 18:50:00,63.2,56.0,29.87,South,183,5.0,11.0,76,0.00,,,0.00,weatherlink.com 1.10,2013-07-28 01:50:00,
2013-07-27 19:05:00,61.4,55.0,29.87,SW,234,6.0,12.0,80,0.00,,,0.00,weatherlink.com 1.10,2013-07-28 02:05:00,
2013-07-27 19:20:00,61.0,55.0,29.87,SW,226,9.0,11.0,80,0.00,,,0.00,weatherlink.com 1.10,2013-07-28 02:20:00,
2013-07-27 19:35:00,59.5,54.0,29.87,SW,218,7.0,13.0,83,0.00,,,0.00,weatherlink.com 1.10,2013-07-28 02:35:00,
2013-07-27 19:50:00,58.2,54.0,29.87,South,179,7.0,11.0,85,0.00,,,0.00,weatherlink.com 1.10,2013-07-28 02:50:00,
2013-07-27 20:05:00,56.5,53.0,29.87,WSW,239,8.0,11.0,88,0.00,,,0.00,weatherlink.com 1.10,2013-07-28 03:05:00,
2013-07-27 20:20:00,55.8,53.0,29.87,WSW,257,4.0,11.0,90,0.00,,,0.00,weatherlink.com 1.10,2013-07-28 03:20:00,
2013-07-27 20:35:00,55.2,53.0,29.87,SW,226,6.0,9.0,91,0.00,,,0.00,weatherlink.com 1.10,2013-07-28 03:35:00,
2013-07-27 20:50:00,55.0,53.0,29.88,SSW,198,4.0,11.0,92,0.00,,,0.00,weatherlink.com 1.10,2013-07-28 03:50:00,
2013-07-27 21:05:00,54.6,53.0,29.88,SSE,160,3.0,10.0,93,0.00,,,0.00,weatherlink.com 1.10,2013-07-28 04:05:00,
2013-07-27 21:20:00,54.4,53.0,29.88,SW,235,3.0,7.0,93,0.00,,,0.00,weatherlink.com 1.10,2013-07-28 04:20:00,
2013-07-27 21:35:00,54.4,53.0,29.88,SW,226,3.0,10.0,94,0.00,,,0.00,weatherlink.com 1.10,2013-07-28 04:35:00,
2013-07-27 21:50:00,54.2,53.0,29.88,SSW,210,4.0,7.0,94,0.00,,,0.00,weatherlink.com 1.10,2013-07-28 04:50:00,
2013-07-27 22:05:00,53.9,52.0,29.89,SW,222,2.0,7.0,94,0.00,,,0.00,weatherlink.com 1.10,2013-07-28 05:05:00,
2013-07-27 22:20:00,53.7,52.0,29.89,SW,232,2.0,6.0,94,0.00,,,0.00,weatherlink.com 1.10,2013-07-28 05:20:00,
2013-07-27 22:35:00,53.5,52.0,29.89,South,188,2.0,9.0,94,0.00,,,0.00,weatherlink.com 1.10,2013-07-28 05:35:00,
2013-07-27 22:50:00,53.1,52.0,29.89,South,176,4.0,9.0,95,0.00,,,0.00,weatherlink.com 1.10,2013-07-28 05:50:00,
2013-07-27 23:05:00,52.8,52.0,29.89,South,176,6.0,8.0,96,0.00,,,0.00,weatherlink.com 1.10,2013-07-28 06:05:00,
2013-07-27 23:20:00,52.5,51.0,29.89,SSW,200,6.0,8.0,96,0.00,,,0.00,weatherlink.com 1.10,2013-07-28 06:20:00,
2013-07-27 23:35:00,52.4,52.0,29.89,SW,223,6.0,6.0,97,0.00,,,0.00,weatherlink.com 1.10,2013-07-28 06:35:00,
2013-07-27 23:50:00,52.4,52.0,29.88,SSW,194,0.0,3.0,97,0.00,,,0.00,weatherlink.com 1.10,2013-07-28 06:50:00,